Time;durP1;ratioP1;P1;durP2;ratioP2;P2;SDS_P1;SDS_P2;PMS_P1;PMS_P2;Temp;Humidity;BMP_temperature;BMP_pressure;BME280_temperature;BME280_humidity;BME280_pressure;Samples;Min_cycle;Max_cycle;Signal;HPM_P1;HPM_P2
2021/10/20 00:02:09;;;;;;;7.72;5.30;;;16.40;77.70;;;;;;5069882;28;20048;-83
2021/10/20 00:04:36;;;;;;;8.23;5.13;;;16.30;77.70;;;;;;5069785;28;20044;-84
2021/10/20 00:07:03;;;;;;;11.20;5.45;;;16.40;77.70;;;;;;5069881;28;20045;-83
2021/10/20 00:09:30;;;;;;;6.40;4.93;;;16.40;77.70;;;;;;5069917;28;20048;-83
2021/10/20 00:11:57;;;;;;;13.05;5.40;;;16.40;77.70;;;;;;5070557;28;20048;-83
2021/10/20 00:14:24;;;;;;;8.00;5.40;;;16.40;77.70;;;;;;5069596;28;20044;-82
2021/10/20 00:16:52;;;;;;;8.45;5.40;;;16.40;77.80;;;;;;5069824;28;20040;-83
2021/10/20 00:19:18;;;;;;;9.95;5.65;;;16.40;77.80;;;;;;5069657;28;20048;-82
2021/10/20 00:21:45;;;;;;;9.35;5.18;;;16.40;77.80;;;;;;5069775;28;20707;-83
2021/10/20 00:24:12;;;;;;;12.60;5.55;;;16.40;77.80;;;;;;5069826;28;20049;-83
2021/10/20 00:26:39;;;;;;;12.30;5.03;;;16.40;77.80;;;;;;5069380;28;20052;-83
2021/10/20 00:29:06;;;;;;;10.25;5.10;;;16.40;77.80;;;;;;5073367;28;20467;-84
2021/10/20 00:31:33;;;;;;;8.18;5.25;;;16.40;77.80;;;;;;5073420;28;20611;-83
2021/10/20 00:34:00;;;;;;;8.43;5.50;;;16.40;77.80;;;;;;5073359;28;20504;-83
2021/10/20 00:36:26;;;;;;;11.25;5.25;;;16.40;77.80;;;;;;5057496;28;20052;-83
2021/10/20 00:38:53;;;;;;;7.00;5.13;;;16.40;77.80;;;;;;5069577;28;20098;-83
2021/10/20 00:41:20;;;;;;;7.88;5.20;;;16.40;77.80;;;;;;5072846;28;20101;-84
2021/10/20 00:43:47;;;;;;;12.45;5.63;;;16.40;77.80;;;;;;5073097;28;20056;-84
2021/10/20 00:46:25;;;;;;;9.02;5.60;;;16.40;77.80;;;;;;5073172;28;20455;-84
2021/10/20 00:48:52;;;;;;;8.88;5.50;;;16.40;77.80;;;;;;5073340;28;20127;-84
2021/10/20 00:51:19;;;;;;;8.48;5.32;;;16.40;77.80;;;;;;5073078;28;20053;-84
2021/10/20 00:53:46;;;;;;;9.73;5.40;;;16.40;77.90;;;;;;5073497;28;20078;-83
2021/10/20 00:56:12;;;;;;;8.43;5.47;;;16.40;77.90;;;;;;5072545;28;20109;-83
2021/10/20 00:58:39;;;;;;;9.15;4.95;;;16.40;77.90;;;;;;5072798;28;20052;-84
2021/10/20 01:01:06;;;;;;;9.13;5.53;;;16.40;77.90;;;;;;5072900;28;20048;-83
2021/10/20 01:03:33;;;;;;;9.38;5.13;;;16.40;77.90;;;;;;5072757;28;20559;-85
2021/10/20 01:06:01;;;;;;;12.15;5.53;;;16.40;77.90;;;;;;5073089;28;20056;-84
2021/10/20 01:08:28;;;;;;;10.32;5.53;;;16.40;77.90;;;;;;5072964;28;20045;-83
2021/10/20 01:10:55;;;;;;;9.27;5.32;;;16.40;77.90;;;;;;5072390;28;20045;-84
2021/10/20 01:13:22;;;;;;;8.90;5.70;;;16.40;77.90;;;;;;5072694;28;20040;-83
2021/10/20 01:15:50;;;;;;;10.23;4.95;;;16.40;77.90;;;;;;5072722;28;20505;-83
2021/10/20 01:18:17;;;;;;;8.75;5.43;;;16.40;78.00;;;;;;5072644;28;20044;-84
2021/10/20 01:20:46;;;;;;;11.02;5.95;;;16.40;78.00;;;;;;5072991;28;20048;-83
2021/10/20 01:23:13;;;;;;;10.30;5.00;;;16.40;78.00;;;;;;5072429;28;20532;-83
2021/10/20 01:25:40;;;;;;;8.20;5.30;;;16.40;78.00;;;;;;5071818;28;20467;-83
2021/10/20 01:28:07;;;;;;;10.18;5.97;;;16.40;78.00;;;;;;5072450;28;20044;-83
2021/10/20 01:30:35;;;;;;;10.65;5.22;;;16.40;78.00;;;;;;5072479;28;20127;-83
2021/10/20 01:33:02;;;;;;;7.35;5.57;;;16.40;78.00;;;;;;5072578;28;20087;-83
2021/10/20 01:35:29;;;;;;;8.23;5.53;;;16.40;78.00;;;;;;5072680;28;20106;-83
2021/10/20 01:38:01;;;;;;;10.80;5.70;;;16.40;78.10;;;;;;5071614;28;20398;-83
2021/10/20 01:40:28;;;;;;;9.18;5.65;;;16.40;78.10;;;;;;5071774;28;20049;-83
2021/10/20 01:42:54;;;;;;;11.50;5.82;;;16.40;78.10;;;;;;5072117;28;20048;-83
2021/10/20 01:45:22;;;;;;;7.53;5.40;;;16.40;78.10;;;;;;5072013;28;20106;-83
2021/10/20 01:47:48;;;;;;;8.60;4.93;;;16.40;78.10;;;;;;5072611;28;20044;-83
2021/10/20 01:50:16;;;;;;;12.52;5.43;;;16.40;78.10;;;;;;5071993;28;20122;-84
2021/10/20 01:52:43;;;;;;;15.63;5.78;;;16.40;78.10;;;;;;5071796;28;20086;-84
2021/10/20 01:55:15;;;;;;;10.90;5.78;;;16.40;78.20;;;;;;5071480;28;20052;-84
2021/10/20 01:57:43;;;;;;;6.80;5.25;;;16.40;78.20;;;;;;5071830;28;20124;-83
2021/10/20 02:00:12;;;;;;;10.30;5.43;;;16.40;78.20;;;;;;5072016;28;20060;-83
2021/10/20 02:02:39;;;;;;;9.40;5.55;;;16.40;78.20;;;;;;5070200;28;20048;-84
2021/10/20 02:05:11;;;;;;;9.13;6.20;;;16.40;78.20;;;;;;5071578;28;20057;-83
2021/10/20 02:07:38;;;;;;;9.30;5.63;;;16.30;78.20;;;;;;5071664;28;20045;-84
2021/10/20 02:10:09;;;;;;;7.75;5.30;;;16.30;78.20;;;;;;5071173;28;20048;-85
2021/10/20 02:12:36;;;;;;;8.63;5.85;;;16.30;78.20;;;;;;5071668;28;20090;-83
2021/10/20 02:15:03;;;;;;;8.68;5.45;;;16.30;78.20;;;;;;5071607;28;20044;-84
2021/10/20 02:17:30;;;;;;;9.60;5.43;;;16.30;78.20;;;;;;5070803;28;20500;-83
2021/10/20 02:19:57;;;;;;;12.02;5.32;;;16.30;78.20;;;;;;5071257;28;20044;-84
2021/10/20 02:22:24;;;;;;;8.07;5.40;;;16.30;78.20;;;;;;5071168;28;20040;-84
2021/10/20 02:24:53;;;;;;;9.30;5.70;;;16.30;78.20;;;;;;5070884;28;20135;-84
2021/10/20 02:27:20;;;;;;;8.77;5.63;;;16.30;78.20;;;;;;5071171;28;20051;-84
2021/10/20 02:29:47;;;;;;;7.40;5.50;;;16.30;78.10;;;;;;5071794;28;20105;-83
2021/10/20 02:32:15;;;;;;;8.70;6.00;;;16.30;78.20;;;;;;5071085;28;20126;-84
2021/10/20 02:34:42;;;;;;;9.75;4.97;;;16.30;78.20;;;;;;5071033;28;20056;-83
2021/10/20 02:37:09;;;;;;;10.02;5.40;;;16.20;78.10;;;;;;5070633;28;20098;-84
2021/10/20 02:39:36;;;;;;;8.82;5.60;;;16.20;78.10;;;;;;5071134;28;20044;-83
2021/10/20 02:42:03;;;;;;;8.50;5.43;;;16.20;78.10;;;;;;5071191;28;20049;-83
2021/10/20 02:44:30;;;;;;;8.20;5.00;;;16.20;78.10;;;;;;5070167;28;20130;-83
2021/10/20 02:46:57;;;;;;;7.97;5.70;;;16.20;78.10;;;;;;5070824;28;20044;-84
2021/10/20 02:49:24;;;;;;;8.90;5.45;;;16.20;78.10;;;;;;5069963;28;20102;-85
2021/10/20 02:51:51;;;;;;;12.32;5.38;;;16.20;78.10;;;;;;5070374;28;20044;-85
2021/10/20 02:54:19;;;;;;;8.88;5.70;;;16.20;78.10;;;;;;5070910;28;20048;-84
2021/10/20 02:56:47;;;;;;;8.30;5.70;;;16.20;78.10;;;;;;5071238;28;20060;-83
2021/10/20 02:59:14;;;;;;;12.13;5.65;;;16.20;78.10;;;;;;5070554;28;20097;-84
2021/10/20 03:01:41;;;;;;;10.30;5.57;;;16.20;78.00;;;;;;5070572;28;20410;-85
2021/10/20 03:04:08;;;;;;;8.45;5.35;;;16.10;78.00;;;;;;5070413;28;20390;-83
2021/10/20 03:06:35;;;;;;;9.93;5.57;;;16.10;78.00;;;;;;5070326;28;20056;-83
2021/10/20 03:09:03;;;;;;;8.52;5.63;;;16.10;78.00;;;;;;5070846;28;20155;-84
2021/10/20 03:11:29;;;;;;;8.52;5.30;;;16.10;78.00;;;;;;5070766;28;20121;-83
2021/10/20 03:13:58;;;;;;;13.77;5.53;;;16.10;78.00;;;;;;5070424;28;20040;-83
2021/10/20 03:16:25;;;;;;;12.70;5.63;;;16.10;77.90;;;;;;5070345;28;20570;-82
2021/10/20 03:18:53;;;;;;;9.52;5.35;;;16.00;77.90;;;;;;5070386;28;20094;-84
2021/10/20 03:21:20;;;;;;;9.65;5.32;;;16.00;77.90;;;;;;5070025;28;20048;-83
2021/10/20 03:23:47;;;;;;;10.82;5.35;;;16.00;77.90;;;;;;5070831;28;20041;-84
2021/10/20 03:26:14;;;;;;;8.50;5.65;;;16.00;77.90;;;;;;5070174;28;20060;-83
2021/10/20 03:28:41;;;;;;;10.30;5.47;;;16.00;77.90;;;;;;5070157;28;20094;-83
2021/10/20 03:31:08;;;;;;;9.73;5.65;;;16.00;77.90;;;;;;5070283;28;20048;-83
2021/10/20 03:33:35;;;;;;;11.00;5.88;;;16.00;78.00;;;;;;5070124;28;20047;-83
2021/10/20 03:36:04;;;;;;;7.72;5.35;;;16.00;78.00;;;;;;5070157;28;20109;-83
2021/10/20 03:38:30;;;;;;;10.90;5.70;;;15.90;78.00;;;;;;5069794;28;20049;-84
2021/10/20 03:40:57;;;;;;;7.45;5.05;;;15.90;78.00;;;;;;5070097;28;20071;-83
2021/10/20 03:43:38;;;;;;;7.97;5.50;;;15.90;78.10;;;;;;5070100;28;20076;-84
2021/10/20 03:46:06;;;;;;;10.85;5.50;;;15.90;78.10;;;;;;5069962;28;20049;-83
2021/10/20 03:48:33;;;;;;;9.30;5.50;;;15.90;78.20;;;;;;5070177;28;20044;-83
2021/10/20 03:51:00;;;;;;;10.50;5.50;;;15.90;78.20;;;;;;5070176;28;20052;-84
2021/10/20 03:53:27;;;;;;;8.60;5.50;;;15.90;78.30;;;;;;5070128;28;20094;-84
2021/10/20 03:55:55;;;;;;;9.73;5.75;;;15.90;78.30;;;;;;5070023;28;20493;-83
2021/10/20 03:58:22;;;;;;;7.75;5.80;;;15.90;78.40;;;;;;5069940;28;20045;-83
2021/10/20 04:00:52;;;;;;;7.93;5.68;;;15.90;78.40;;;;;;5071866;28;20045;-83
2021/10/20 04:03:19;;;;;;;8.25;5.80;;;15.90;78.50;;;;;;5074106;28;20485;-83
2021/10/20 04:05:46;;;;;;;12.55;5.93;;;15.90;78.50;;;;;;5074172;28;20493;-83
2021/10/20 04:08:12;;;;;;;8.40;5.70;;;15.80;78.60;;;;;;5073920;28;20094;-83
2021/10/20 04:10:40;;;;;;;8.95;5.40;;;15.90;78.70;;;;;;5073678;28;20048;-83
2021/10/20 04:13:09;;;;;;;10.55;5.97;;;15.80;78.70;;;;;;5073723;28;20048;-82
2021/10/20 04:15:36;;;;;;;11.50;5.60;;;15.80;78.80;;;;;;5073870;28;20536;-83
2021/10/20 04:18:04;;;;;;;10.27;6.28;;;15.80;78.80;;;;;;5073940;28;20480;-83
2021/10/20 04:20:31;;;;;;;10.45;5.57;;;15.80;78.90;;;;;;5072895;28;20049;-83
2021/10/20 04:22:58;;;;;;;10.50;6.00;;;15.80;78.90;;;;;;5073566;28;20041;-84
2021/10/20 04:25:25;;;;;;;10.25;6.15;;;15.80;79.00;;;;;;5073388;28;20056;-83
2021/10/20 04:27:52;;;;;;;8.55;5.93;;;15.80;79.10;;;;;;5073467;28;20121;-83
2021/10/20 04:30:21;;;;;;;11.15;5.95;;;15.80;79.10;;;;;;5073521;28;20052;-83
2021/10/20 04:32:48;;;;;;;9.30;5.68;;;15.80;79.20;;;;;;5073936;28;20105;-83
2021/10/20 04:35:17;;;;;;;8.18;5.65;;;15.80;79.20;;;;;;5072895;28;20049;-84
2021/10/20 04:37:44;;;;;;;8.85;5.35;;;15.80;79.20;;;;;;5073316;28;20041;-82
2021/10/20 04:40:11;;;;;;;11.32;6.72;;;15.80;79.30;;;;;;5073232;28;20094;-83
2021/10/20 04:42:40;;;;;;;9.55;5.72;;;15.80;79.30;;;;;;5073392;28;20086;-83
2021/10/20 04:45:09;;;;;;;8.90;6.28;;;15.80;79.40;;;;;;5073373;28;20086;-84
2021/10/20 04:47:36;;;;;;;10.18;6.15;;;15.80;79.40;;;;;;5073441;28;20056;-83
2021/10/20 04:50:06;;;;;;;8.27;6.13;;;15.80;79.50;;;;;;5073151;28;20074;-83
2021/10/20 04:52:35;;;;;;;11.35;6.53;;;15.80;79.50;;;;;;5072877;28;20048;-83
2021/10/20 04:55:04;;;;;;;8.50;5.95;;;15.80;79.60;;;;;;5072951;28;20056;-84
2021/10/20 04:57:32;;;;;;;10.70;6.43;;;15.80;79.60;;;;;;5073163;28;20125;-83
2021/10/20 04:59:58;;;;;;;10.10;6.65;;;15.80;79.70;;;;;;5073433;28;20052;-84
2021/10/20 05:02:25;;;;;;;8.48;6.65;;;15.80;79.70;;;;;;5072332;28;20049;-82
2021/10/20 05:04:53;;;;;;;9.05;5.57;;;15.80;79.80;;;;;;5072818;28;20542;-83
2021/10/20 05:07:20;;;;;;;12.38;6.55;;;15.80;79.80;;;;;;5072775;28;20504;-84
2021/10/20 05:09:49;;;;;;;7.90;6.55;;;15.80;79.80;;;;;;5072710;28;20060;-83
2021/10/20 05:12:16;;;;;;;9.27;5.68;;;15.80;79.90;;;;;;5071837;28;20131;-83
2021/10/20 05:14:43;;;;;;;12.27;6.40;;;15.80;79.90;;;;;;5073237;28;20064;-83
2021/10/20 05:17:10;;;;;;;10.85;6.55;;;15.80;80.00;;;;;;5072228;28;20048;-83
2021/10/20 05:19:37;;;;;;;13.55;7.10;;;15.80;80.00;;;;;;5072652;28;20109;-85
2021/10/20 05:22:06;;;;;;;9.90;6.60;;;15.80;80.10;;;;;;5072410;28;20052;-84
2021/10/20 05:24:35;;;;;;;10.70;7.07;;;15.80;80.10;;;;;;5072580;28;20048;-84
2021/10/20 05:27:02;;;;;;;13.25;7.00;;;15.80;80.20;;;;;;5072620;28;20056;-85
2021/10/20 05:29:32;;;;;;;17.52;6.93;;;15.80;80.30;;;;;;5072772;28;20505;-84
2021/10/20 05:32:00;;;;;;;13.73;7.50;;;15.90;80.50;;;;;;5071795;28;20501;-85
2021/10/20 05:34:27;;;;;;;14.48;7.30;;;15.90;80.70;;;;;;5072341;28;20036;-84
2021/10/20 05:36:54;;;;;;;16.77;7.65;;;15.90;80.90;;;;;;5072350;28;20041;-85
2021/10/20 05:39:21;;;;;;;16.42;8.55;;;15.90;81.10;;;;;;5072340;28;20075;-84
2021/10/20 05:41:50;;;;;;;12.45;7.85;;;15.90;81.30;;;;;;5072699;28;20044;-86
2021/10/20 05:44:18;;;;;;;10.82;7.72;;;15.90;81.40;;;;;;5072172;28;20106;-85
2021/10/20 05:46:47;;;;;;;13.32;8.55;;;15.90;81.60;;;;;;5071651;28;20044;-85
2021/10/20 05:49:14;;;;;;;18.55;8.32;;;15.80;81.70;;;;;;5071986;28;20051;-84
2021/10/20 05:51:41;;;;;;;15.45;8.93;;;15.80;81.80;;;;;;5072220;28;20044;-84
2021/10/20 05:54:08;;;;;;;12.50;8.15;;;15.80;81.90;;;;;;5072023;28;20094;-83
2021/10/20 05:56:35;;;;;;;22.52;8.23;;;15.80;82.10;;;;;;5072431;28;20054;-83
2021/10/20 05:59:04;;;;;;;11.85;8.07;;;15.80;82.20;;;;;;5071590;28;20097;-84
2021/10/20 06:01:31;;;;;;;13.38;8.85;;;15.70;82.20;;;;;;5070237;28;20516;-84
2021/10/20 06:03:59;;;;;;;12.95;8.65;;;15.70;82.40;;;;;;5071841;28;20460;-83
2021/10/20 06:06:26;;;;;;;14.73;9.77;;;15.70;82.40;;;;;;5071781;28;20097;-84
2021/10/20 06:08:53;;;;;;;14.63;9.10;;;15.70;82.50;;;;;;5072303;28;20049;-85
2021/10/20 06:11:21;;;;;;;11.43;8.85;;;15.70;82.60;;;;;;5071332;28;20052;-84
2021/10/20 06:13:48;;;;;;;17.58;9.38;;;15.70;82.60;;;;;;5071488;28;20452;-86
2021/10/20 06:16:15;;;;;;;13.73;9.52;;;15.60;82.70;;;;;;5071034;28;20048;-86
2021/10/20 06:18:42;;;;;;;16.85;9.93;;;15.60;82.80;;;;;;5071659;28;20047;-84
2021/10/20 06:21:10;;;;;;;11.80;9.02;;;15.60;82.90;;;;;;5070413;28;20455;-84
2021/10/20 06:23:37;;;;;;;13.65;9.18;;;15.60;82.90;;;;;;5071769;28;20052;-85
2021/10/20 06:26:03;;;;;;;14.50;8.65;;;15.60;83.00;;;;;;5071145;28;20117;-83
2021/10/20 06:28:31;;;;;;;14.68;9.38;;;15.50;83.00;;;;;;5071183;28;20630;-85
2021/10/20 06:30:57;;;;;;;13.68;9.13;;;15.50;83.10;;;;;;5071029;28;20079;-84
2021/10/20 06:33:24;;;;;;;12.60;8.93;;;15.50;83.20;;;;;;5069999;28;20110;-85
2021/10/20 06:35:54;;;;;;;12.02;9.43;;;15.50;83.30;;;;;;5071518;28;20064;-84
2021/10/20 06:38:22;;;;;;;18.08;8.75;;;15.50;83.30;;;;;;5071054;28;20079;-84
2021/10/20 06:40:49;;;;;;;13.65;9.23;;;15.50;83.40;;;;;;5070959;28;20131;-86
2021/10/20 06:43:16;;;;;;;11.85;8.90;;;15.50;83.40;;;;;;5070973;28;20090;-85
2021/10/20 06:45:43;;;;;;;15.02;9.00;;;15.50;83.50;;;;;;5070502;28;20044;-85
2021/10/20 06:48:10;;;;;;;11.85;9.15;;;15.50;83.60;;;;;;5070858;28;20045;-85
2021/10/20 06:50:37;;;;;;;12.23;9.75;;;15.40;83.60;;;;;;5066964;28;20044;-85
2021/10/20 06:53:04;;;;;;;12.32;9.27;;;15.50;83.60;;;;;;5068941;28;20098;-85
2021/10/20 06:55:31;;;;;;;15.73;9.80;;;15.40;83.70;;;;;;5074004;28;20167;-84
2021/10/20 06:57:59;;;;;;;12.88;9.50;;;15.50;83.70;;;;;;5070106;28;20093;-83
2021/10/20 07:00:26;;;;;;;14.48;9.73;;;15.40;83.70;;;;;;5052252;28;20040;-85
2021/10/20 07:02:52;;;;;;;13.35;9.95;;;15.40;83.80;;;;;;5076054;28;20056;-83
2021/10/20 07:05:20;;;;;;;14.52;9.10;;;15.40;83.80;;;;;;5072446;28;20534;-85
2021/10/20 07:07:47;;;;;;;12.88;9.20;;;15.40;83.80;;;;;;5072253;28;20047;-84
2021/10/20 07:10:14;;;;;;;16.92;9.65;;;15.40;83.90;;;;;;5074126;28;20519;-84
2021/10/20 07:12:41;;;;;;;13.48;9.55;;;15.40;83.90;;;;;;5069516;28;20049;-85
2021/10/20 07:15:08;;;;;;;13.73;9.68;;;15.40;83.90;;;;;;5072682;28;20052;-84
2021/10/20 07:17:36;;;;;;;15.65;9.93;;;15.40;83.90;;;;;;5073805;28;20048;-86
2021/10/20 07:20:04;;;;;;;14.50;9.00;;;15.40;83.90;;;;;;5072111;28;20445;-85
2021/10/20 07:22:34;;;;;;;11.95;10.10;;;15.40;84.00;;;;;;5072154;28;20044;-83
2021/10/20 07:25:01;;;;;;;12.68;9.82;;;15.40;84.00;;;;;;5071753;28;20565;-84
2021/10/20 07:27:29;;;;;;;11.90;10.45;;;15.40;84.10;;;;;;5067130;28;20049;-84
2021/10/20 07:29:56;;;;;;;11.07;9.38;;;15.40;84.10;;;;;;5083919;28;20504;-83
2021/10/20 07:32:23;;;;;;;16.15;11.00;;;15.40;84.20;;;;;;5071014;28;20052;-87
2021/10/20 07:34:51;;;;;;;13.18;10.55;;;15.40;84.30;;;;;;5071740;28;20038;-86
2021/10/20 07:37:17;;;;;;;13.35;10.15;;;15.40;84.40;;;;;;5072033;28;20044;-88
2021/10/20 07:39:45;;;;;;;12.10;10.40;;;15.40;84.40;;;;;;5069478;28;20493;-85
2021/10/20 07:42:12;;;;;;;15.60;10.73;;;15.40;84.50;;;;;;5071451;28;20090;-86
2021/10/20 07:44:39;;;;;;;13.20;10.40;;;15.40;84.50;;;;;;5074344;28;20098;-85
2021/10/20 07:47:05;;;;;;;14.80;11.13;;;15.40;84.60;;;;;;5077231;28;20462;-87
2021/10/20 07:49:32;;;;;;;13.60;11.27;;;15.40;84.60;;;;;;5078866;28;20090;-85
2021/10/20 07:51:59;;;;;;;14.52;10.27;;;15.40;84.70;;;;;;5071589;28;20048;-84
2021/10/20 07:54:26;;;;;;;13.25;11.00;;;15.50;84.70;;;;;;5051513;28;20459;-85
2021/10/20 07:56:54;;;;;;;17.45;10.70;;;15.50;84.80;;;;;;5075679;28;20452;-85
2021/10/20 07:59:21;;;;;;;13.10;10.02;;;15.50;84.80;;;;;;5070839;28;20479;-84
2021/10/20 08:01:49;;;;;;;13.60;10.35;;;15.50;84.80;;;;;;5071404;28;20378;-84
2021/10/20 08:04:17;;;;;;;12.68;10.00;;;15.50;84.80;;;;;;5071887;28;20066;-85
2021/10/20 08:06:44;;;;;;;13.60;10.35;;;15.50;84.90;;;;;;5071405;28;20122;-84
2021/10/20 08:09:11;;;;;;;13.30;10.30;;;15.60;84.90;;;;;;5070649;28;20053;-87
2021/10/20 08:11:38;;;;;;;15.60;10.65;;;15.60;84.90;;;;;;5073451;28;20048;-86
2021/10/20 08:14:05;;;;;;;14.35;10.65;;;15.60;85.00;;;;;;5072035;28;20056;-84
2021/10/20 08:16:32;;;;;;;15.45;11.40;;;15.60;85.00;;;;;;5071319;28;20048;-85
2021/10/20 08:18:59;;;;;;;15.68;10.90;;;15.60;85.00;;;;;;5071264;28;20144;-84
2021/10/20 08:21:26;;;;;;;14.98;11.15;;;15.70;85.00;;;;;;5051645;28;20052;-86
2021/10/20 08:23:54;;;;;;;15.02;11.45;;;15.70;85.10;;;;;;5075491;28;20045;-84
2021/10/20 08:26:22;;;;;;;14.85;11.45;;;15.70;85.10;;;;;;5071640;28;20063;-84
2021/10/20 08:28:49;;;;;;;18.10;11.43;;;15.80;85.10;;;;;;5071480;28;20090;-84
2021/10/20 08:31:16;;;;;;;15.35;10.52;;;15.80;85.10;;;;;;5071429;28;20086;-86
2021/10/20 08:33:43;;;;;;;12.48;10.85;;;15.80;85.20;;;;;;5069415;28;20124;-83
2021/10/20 08:36:10;;;;;;;12.75;9.70;;;15.90;85.20;;;;;;5071856;28;20056;-84
2021/10/20 08:38:37;;;;;;;21.48;11.10;;;15.90;85.30;;;;;;5073005;28;20048;-84
2021/10/20 08:41:04;;;;;;;16.23;11.35;;;15.90;85.30;;;;;;5071128;28;20513;-84
2021/10/20 08:43:31;;;;;;;15.35;10.98;;;15.90;85.30;;;;;;5071347;28;20047;-84
2021/10/20 08:45:58;;;;;;;13.38;10.50;;;16.00;85.30;;;;;;5068007;28;20381;-85
2021/10/20 08:48:29;;;;;;;12.55;10.32;;;16.00;85.30;;;;;;5055391;28;20049;-85
2021/10/20 08:51:02;;;;;;;13.38;10.85;;;16.10;85.30;;;;;;5087304;28;20047;-84
2021/10/20 08:53:30;;;;;;;13.17;10.60;;;16.10;85.30;;;;;;5076728;28;20108;-85
2021/10/20 17:05:52;;;;;;;11.38;5.05;;;16.60;82.10;;;;;;5122742;23;20324;-88
2021/10/20 17:08:19;;;;;;;12.13;5.30;;;16.60;82.20;;;;;;4985699;28;20446;-87
2021/10/20 17:10:50;;;;;;;17.05;5.57;;;16.60;82.30;;;;;;4980344;28;20043;-88
2021/10/20 17:13:20;;;;;;;11.82;5.20;;;16.50;82.40;;;;;;4976554;28;20101;-86
2021/10/20 17:15:48;;;;;;;15.65;4.65;;;16.50;82.40;;;;;;4979462;28;20054;-90
2021/10/20 17:18:15;;;;;;;12.40;5.38;;;16.50;82.40;;;;;;4982045;28;20487;-88
2021/10/20 17:20:42;;;;;;;12.18;4.63;;;16.50;82.50;;;;;;4979927;28;20051;-89
2021/10/20 17:23:11;;;;;;;20.65;4.45;;;16.50;82.50;;;;;;4983979;28;20607;-88
2021/10/20 17:25:39;;;;;;;11.23;4.47;;;16.50;82.60;;;;;;4991899;28;20063;-91
2021/10/20 17:28:06;;;;;;;16.80;4.60;;;16.50;82.60;;;;;;4991051;28;20054;-88
2021/10/20 17:30:33;;;;;;;12.00;3.33;;;16.40;82.60;;;;;;4994676;28;20461;-91
2021/10/20 17:33:10;;;;;;;13.13;4.20;;;16.40;82.60;;;;;;4987599;28;20087;-90
2021/10/20 17:35:37;;;;;;;13.05;3.78;;;16.40;82.60;;;;;;4985338;28;20491;-88
2021/10/20 17:38:04;;;;;;;16.00;3.60;;;16.40;82.60;;;;;;4981832;28;20046;-86
2021/10/20 17:40:31;;;;;;;12.32;3.75;;;16.40;82.50;;;;;;4979752;28;20570;-88
2021/10/20 17:42:59;;;;;;;12.00;3.45;;;16.40;82.50;;;;;;4977790;28;20058;-87
2021/10/20 17:45:26;;;;;;;14.32;3.33;;;16.40;82.60;;;;;;4979655;28;20496;-87
2021/10/20 17:47:55;;;;;;;15.07;3.30;;;16.40;82.60;;;;;;4979987;28;20059;-89
2021/10/20 17:50:22;;;;;;;13.25;3.50;;;16.30;82.60;;;;;;4979262;28;20503;-87
2021/10/20 17:52:49;;;;;;;11.52;3.47;;;16.30;82.60;;;;;;4981623;28;20084;-89
2021/10/20 17:55:16;;;;;;;14.75;3.45;;;16.30;82.60;;;;;;4989276;28;20090;-87
2021/10/20 17:57:43;;;;;;;15.38;3.47;;;16.30;82.70;;;;;;4992792;28;20051;-88
2021/10/20 18:00:11;;;;;;;12.88;3.33;;;16.20;82.70;;;;;;4979715;28;20561;-85
2021/10/20 18:02:44;;;;;;;11.40;3.67;;;16.20;82.80;;;;;;4979534;28;20078;-89
2021/10/20 18:05:14;;;;;;;10.13;3.00;;;16.20;82.80;;;;;;4978783;28;20460;-89
2021/10/20 18:07:43;;;;;;;14.48;3.47;;;16.20;82.80;;;;;;4979554;28;20064;-89
2021/10/20 18:10:11;;;;;;;18.05;3.00;;;16.20;82.80;;;;;;4975567;28;20047;-88
2021/10/20 18:12:40;;;;;;;18.85;4.40;;;16.20;82.80;;;;;;4981380;28;20109;-88
2021/10/20 18:15:08;;;;;;;18.15;3.83;;;16.20;82.80;;;;;;4992857;28;20046;-90
2021/10/20 18:17:40;;;;;;;11.80;3.22;;;16.20;82.80;;;;;;4992497;28;20085;-89
2021/10/20 18:20:10;;;;;;;10.70;3.33;;;16.10;82.80;;;;;;4989099;28;20054;-88
2021/10/20 18:22:39;;;;;;;13.25;3.38;;;16.10;82.80;;;;;;4992153;28;20340;-89
2021/10/20 18:25:09;;;;;;;15.13;3.67;;;16.10;82.70;;;;;;4975163;28;20042;-89
2021/10/20 18:27:36;;;;;;;13.82;3.42;;;16.10;82.70;;;;;;4994207;28;20054;-89
2021/10/20 18:30:05;;;;;;;16.48;3.38;;;16.00;82.60;;;;;;4991250;28;20042;-89
2021/10/20 18:32:35;;;;;;;9.45;2.90;;;16.00;82.60;;;;;;4979249;28;20050;-88
2021/10/20 18:35:03;;;;;;;18.15;3.38;;;16.00;82.50;;;;;;4975396;28;20043;-89
2021/10/20 18:37:30;;;;;;;14.68;3.58;;;16.00;82.50;;;;;;4980295;28;20454;-90
2021/10/20 18:39:59;;;;;;;12.23;3.20;;;16.00;82.50;;;;;;4992670;28;20050;-90
2021/10/20 18:42:26;;;;;;;13.93;3.33;;;15.90;82.40;;;;;;4975702;28;20053;-90
2021/10/20 18:44:53;;;;;;;16.48;3.35;;;15.90;82.40;;;;;;4992352;28;20050;-90
2021/10/20 18:47:26;;;;;;;12.35;3.33;;;15.90;82.40;;;;;;4981708;28;20078;-92
2021/10/20 18:49:54;;;;;;;11.68;3.22;;;15.90;82.40;;;;;;4983435;28;20046;-90
2021/10/20 18:52:22;;;;;;;13.63;3.30;;;15.90;82.30;;;;;;4993456;28;20425;-94
2021/10/20 18:54:49;;;;;;;14.95;3.40;;;15.90;82.30;;;;;;4993721;28;20085;-93
2021/10/20 18:57:18;;;;;;;15.68;3.70;;;15.90;82.30;;;;;;4974622;28;20054;-85
2021/10/20 18:59:45;;;;;;;11.45;3.25;;;15.90;82.30;;;;;;4985685;28;20066;-86
2021/10/20 19:02:13;;;;;;;9.25;2.88;;;15.90;82.20;;;;;;4985511;28;20470;-85
2021/10/20 19:04:40;;;;;;;15.88;3.65;;;15.90;82.30;;;;;;4977591;28;20428;-86
2021/10/20 19:07:08;;;;;;;15.88;3.40;;;15.90;82.20;;;;;;4973924;28;20066;-85
2021/10/20 19:09:35;;;;;;;8.93;2.50;;;15.80;82.20;;;;;;4978094;28;20506;-84
2021/10/20 19:12:03;;;;;;;12.90;3.83;;;15.80;82.20;;;;;;4978840;28;20105;-87
2021/10/20 19:14:51;;;;;;;10.57;3.40;;;15.80;82.20;;;;;;4978062;28;20079;-85
2021/10/20 19:17:22;;;;;;;13.93;3.72;;;15.80;82.20;;;;;;4977190;28;20047;-86
2021/10/20 19:19:53;;;;;;;13.90;3.85;;;15.80;82.20;;;;;;4977960;28;20088;-87
2021/10/20 19:22:20;;;;;;;20.15;3.78;;;15.70;82.20;;;;;;4974394;28;20458;-87
2021/10/20 19:24:47;;;;;;;14.70;3.60;;;15.70;82.20;;;;;;4976542;28;20051;-89
2021/10/20 19:27:14;;;;;;;10.55;3.38;;;15.70;82.30;;;;;;4992415;28;20058;-87
2021/10/20 19:29:41;;;;;;;12.63;3.30;;;15.70;82.30;;;;;;4980836;28;20467;-87
2021/10/20 19:32:09;;;;;;;17.38;3.90;;;15.70;82.30;;;;;;4976976;28;20062;-85
2021/10/20 19:34:42;;;;;;;15.85;3.72;;;15.70;82.30;;;;;;4977220;28;20047;-86
2021/10/20 19:37:09;;;;;;;16.58;4.25;;;15.60;82.30;;;;;;4973320;28;20577;-86
2021/10/20 19:39:36;;;;;;;14.07;3.78;;;15.60;82.30;;;;;;4977725;28;20046;-87
2021/10/20 19:42:03;;;;;;;13.57;4.18;;;15.60;82.40;;;;;;4977779;28;20042;-88
2021/10/20 19:44:30;;;;;;;20.70;4.28;;;15.60;82.40;;;;;;4977433;28;20051;-88
2021/10/20 19:46:58;;;;;;;17.17;4.35;;;15.60;82.40;;;;;;4977169;28;20097;-87
2021/10/20 19:49:27;;;;;;;22.45;4.32;;;15.60;82.50;;;;;;4973325;28;20090;-87
2021/10/20 19:51:57;;;;;;;17.77;4.55;;;15.60;82.50;;;;;;4990676;28;20050;-87
2021/10/20 19:54:24;;;;;;;10.82;3.95;;;15.70;82.60;;;;;;4977375;28;20054;-87
2021/10/20 19:56:51;;;;;;;20.65;4.70;;;15.60;82.60;;;;;;4977428;28;20470;-85
2021/10/20 19:59:18;;;;;;;18.40;4.45;;;15.60;82.60;;;;;;4978835;28;20102;-86
2021/10/20 20:01:45;;;;;;;14.68;3.80;;;15.70;82.60;;;;;;4976761;28;20453;-86
2021/10/20 20:04:15;;;;;;;16.95;3.95;;;15.60;82.70;;;;;;4973302;28;20054;-86
2021/10/20 20:09:37;;;;;;;13.43;4.30;;;15.70;82.70;;;;;;4992013;28;20054;-85
2021/10/20 20:12:06;;;;;;;21.08;4.95;;;15.70;82.70;;;;;;4977743;28;20105;-87
2021/10/20 20:14:33;;;;;;;15.25;4.45;;;15.70;82.70;;;;;;4979001;28;20447;-86
2021/10/20 20:17:00;;;;;;;14.82;4.45;;;15.70;82.70;;;;;;4978712;28;20038;-86
2021/10/20 20:19:27;;;;;;;18.35;4.53;;;15.70;82.70;;;;;;4988373;28;20051;-85
2021/10/20 20:21:55;;;;;;;18.17;4.75;;;15.80;82.70;;;;;;4974380;28;20051;-87
2021/10/20 20:24:23;;;;;;;17.23;4.85;;;15.80;82.70;;;;;;4979117;28;20051;-84
2021/10/20 20:26:51;;;;;;;17.50;4.75;;;15.80;82.70;;;;;;4977111;28;20051;-86
2021/10/20 20:29:18;;;;;;;15.43;4.13;;;15.80;82.70;;;;;;4977734;28;20046;-86
2021/10/20 20:31:45;;;;;;;16.60;5.35;;;15.80;82.60;;;;;;4976693;28;20507;-86
2021/10/20 20:34:12;;;;;;;18.50;4.47;;;15.90;82.60;;;;;;4973223;28;20066;-84
2021/10/20 20:36:39;;;;;;;13.82;4.35;;;15.90;82.50;;;;;;4976748;28;20459;-84
2021/10/20 20:39:07;;;;;;;9.75;3.88;;;15.90;82.50;;;;;;4977085;28;20038;-85
2021/10/20 20:41:35;;;;;;;13.70;3.95;;;15.90;82.40;;;;;;4977169;28;20051;-85
2021/10/20 20:44:06;;;;;;;18.10;4.35;;;15.90;82.40;;;;;;4981856;28;20038;-88
2021/10/20 20:46:34;;;;;;;16.05;4.72;;;15.90;82.30;;;;;;4978880;28;20046;-85
2021/10/20 20:49:02;;;;;;;18.00;4.32;;;15.90;82.20;;;;;;4977926;28;20059;-87
2021/10/20 20:51:30;;;;;;;12.52;4.32;;;15.90;82.10;;;;;;4981865;28;20051;-87
2021/10/20 20:53:57;;;;;;;14.05;3.83;;;15.90;82.00;;;;;;4980289;28;20407;-86